KRMG/RMG METAR and TAF weather

Enter ICAO airport designator
Station Type Date Time Source
KRMG METAR 2020/04/01 22:53 UTC NOAA

KRMG 012253Z AUTO 03010KT 10SM CLR 15/02 A2998 RMK AO2 SLP148 T01500022


Station Type Date Time Source
KRMG Decoded METAR 2020/04/01 22:53 UTC NOAA

ROME R. B. RUSSELL AIRPORT, GA, United States (KRMG) 34-21N 085-10W 193M
Apr 01, 2020 - 06:53 PM EDT / 2020.04.01 2253 UTC
Wind: from the NNE (030 degrees) at 12 MPH (10 KT):0
Visibility: 10 mile(s):0
Sky conditions: clear
Temperature: 59.0 F (15.0 C)
Dew Point: 36.0 F (2.2 C)
Relative Humidity: 41%
Pressure (altimeter): 29.98 in. Hg (1015 hPa)
ob: KRMG 012253Z AUTO 03010KT 10SM CLR 15/02 A2998 RMK AO2 SLP148 T01500022
cycle: 23

Station Type Date Time Source
KRMG TAF UTC NOAA

Error!

Example: see airport list